鹿児島空港の過去48時間の天気

鹿児島空港 (Kagoshima)

現在時刻: 4/26 20:17 JST (4/26 11:17 UTC) 以下の時間は現地時間です。

過去48時間のMETAR気象情報
時間 風向 風速(m/s) 視程 気温(℃) 湿度(%) 気圧(hPa) 天気現象
26 20:00 西北西 3 10km以上 17 72 1012
26 19:00 西 4 10km以上 18 68 1012
26 18:00 西北西 4 10km以上 19 64 1012
26 17:00 西南西 4 10km以上 21 56 1011
26 16:00 南南西 3 10km以上 22 53 1011
26 15:00 南南西 4 10km以上 23 36 1011
26 14:00 3 10km以上 23 41 1011
26 13:00 4 10km以上 23 47 1012 周辺で火山灰
26 12:49 5 10km以上 22 50 1012
26 12:00 西 4 10km以上 22 57 1012
26 11:00 不定 2 10km以上 20 60 1012
26 10:00 不定 1 10km以上 19 68 1013
26 09:00 不定 1 10km以上 15 82 1013
26 08:00 2 10km以上 14 88 1013
26 07:00 2 10km以上 12 100 1012
26 06:00 2 10km以上 11 100 1011
25 21:00 4 10km以上 13 94 1010
25 20:00 3 10km以上 13 88 1009
25 19:00 北北西 4 10km以上 14 82 1009
25 18:00 北西 7 10km以上 16 68 1008
25 17:00 北西 6 10km以上 18 64 1007
25 16:00 北北西 8 10km以上 19 60 1007
25 15:00 北北西 5 10km以上 19 56 1007
25 14:00 北西 6 10km以上 20 56 1007
25 13:00 北西 6 10km以上 20 60 1007
25 12:00 北西 5 10km以上 20 60 1008
25 11:00 北西 5 10km以上 19 64 1008
25 10:00 北西 8 10km以上 18 64 1008
25 09:00 北西 7 10km以上 17 72 1008
25 08:00 西北西 7 10km以上 16 77 1007
25 07:00 北西 5 10km以上 14 94 1007
25 06:00 北西 5 10km以上 13 94 1006 周辺で霧
24 21:00 西南西 5 4,000m 19 100 1004 弱いしゅう雨 もや
24 20:30 西南西 6 4,000m 20 94 1004 弱いしゅう雨 もや
RJFK 261100Z 29005KT 9999 FEW020 BKN030 17/12 Q1012 RMK 1CU020 7CU030 A2991
RJFK 261000Z 27007KT 9999 FEW020 BKN040 18/12 Q1012 RMK 1CU020 7SC040 A2989
RJFK 260900Z 29008KT 9999 FEW030 BKN050 BKN/// 19/12 Q1012
RJFK 260800Z 25007KT 220V290 9999 FEW020 SCT030 BKN/// 21/12 Q1011
RJFK 260700Z 21006KT 170V280 9999 FEW020 SCT030 BKN/// 22/12 Q1011 RMK 1CU020 3CU030 A2987 VOLCANIC ASH CLOUD S
RJFK 260600Z 21007KT 190V260 9999 FEW020 BKN/// 23/07 Q1011 RMK 1CU020 A2987 VOLCANIC ASH CLOUD S
RJFK 260500Z 19006KT 160V220 9999 FEW020 SCT150 BKN/// 23/09 Q1011 RMK 1CU020 4AC150 A2988 VOLCANIC ASH CLOUD S-SW
RJFK 260400Z 19008KT 160V240 9999 VCVA FEW020 BKN/// 23/11 Q1012 RMK 1CU020 A2989 ASH FALL VOLCANIC ASH CLOUD SE-SW
RJFK 260349Z 18010KT 9999 FEW020 BKN/// 22/11 Q1012 RMK 1CU020 A2989 VOLCANIC ASH CLOUD S-SW
RJFK 260300Z 28007KT 230V320 9999 FEW020 BKN/// 22/13 Q1012
RJFK 260200Z VRB04KT 9999 FEW020 SCT030 BKN/// 20/12 Q1012 RMK 1CU020 3CU030 A2991 VOLCANIC ASH CLOUD S
RJFK 260100Z VRB02KT 9999 FEW020 BKN/// 19/13 Q1013 RMK 1CU020 A2992 VOLCANIC ASH CLOUD S
RJFK 260000Z VRB02KT 9999 FEW020 BKN/// 15/12 Q1013
RJFK 252300Z 35004KT 9999 FEW010 BKN/// 14/12 Q1013
RJFK 252200Z 35003KT CAVOK 12/12 Q1012 RMK A2989 VOLCANIC ASH CLOUD S
RJFK 252100Z 35003KT 9999 FEW001 SCT140 BKN/// 11/11 Q1011 RMK 1ST001 3AC140 A2987
RJFK 251200Z 35007KT 9999 FEW020 BKN030 13/12 Q1010 RMK 1CU020 6CU030 A2984
RJFK 251100Z 36006KT 9999 FEW020 BKN030 13/11 Q1009 RMK 1CU020 5CU030 A2982
RJFK 251000Z 33008KT 9999 FEW020 SCT040 BKN/// 14/11 Q1009
RJFK 250900Z 32013KT 9999 FEW020 SCT040 BKN/// 16/10 Q1008 RMK 1CU020 3CU040 A2978 VOLCANIC ASH CLOUD S
RJFK 250800Z 32012KT 9999 FEW020 BKN/// 18/11 Q1007 RMK 1CU020 A2975 VOLCANIC ASH CLOUD S
RJFK 250700Z 33015KT 9999 FEW020 BKN/// 19/11 Q1007 RMK 1CU020 A2974 VOLCANIC ASH CLOUD S
RJFK 250600Z 33010KT 9999 FEW020 BKN/// 19/10 Q1007
RJFK 250500Z 32011KT 9999 FEW020 BKN/// 20/11 Q1007
RJFK 250400Z 32012KT 9999 FEW020 BKN/// 20/12 Q1007
RJFK 250300Z 31010KT 280V340 9999 FEW020 BKN/// 20/12 Q1008
RJFK 250200Z 31010KT 280V340 9999 FEW020 BKN/// 19/12 Q1008
RJFK 250100Z 32015KT 9999 FEW020 SCT/// 18/11 Q1008 RMK 2CU020 A2978 VOLCANIC ASH CLOUD S
RJFK 250000Z 31014KT 9999 FEW010 SCT020 17/12 Q1008 RMK 1CU010 3CU020 A2978 VOLCANIC ASH CLOUD S
RJFK 242300Z 30013KT 9999 FEW010 SCT020 BKN/// 16/12 Q1007
RJFK 242200Z 31009KT 9999 FEW005 14/13 Q1007 RMK 1ST005 A2974
RJFK 242100Z 32010KT 9999 VCFG FEW001 13/12 Q1006 RMK 1ST001 A2971 FG NE-E VOLCANIC ASH CLOUD S
RJFK 241200Z 24009KT 200V270 4000 -SHRA BR FEW002 BKN004 BKN007 19/19 Q1004 RMK 1ST002 5ST004 6ST007 A2966
RJFK 241130Z 25012KT 4000 -SHRA BR FEW001 BKN003 BKN007 20/19 Q1004 RMK 1ST001 5ST003 6ST007 A2965